Terminal Aerodrome Forecast
Issued by NWS Memphis, TN

Home | Current Version | Previous Version | Text Only | Print | Product List | Glossary On
Versions: 1 2 3 4 5 6 7 8 9 10 11 12 13 14
000
FTUS44 KMEG 231900 AAA
TAFJBR
TAF AMD
KJBR 231939Z 2320/2418 22007KT 5SM TSRA BKN035CB OVC120
      TEMPO 2320/2322 2SM +TSRA OVC025CB
     FM240100 02005KT P6SM VCSH SCT040 BKN080
     FM240600 02007KT P6SM SCT050
     FM240900 02010KT P6SM SCT050=

USA.gov is the U.S. government's official web portal to all federal, state and local government web resources and services.